createdAt,value
2019-01-18T00:02:04.997Z,523.50
2019-01-18T00:04:36.246Z,505.00
2019-01-18T00:07:07.834Z,502.25
2019-01-18T00:09:39.407Z,493.25
2019-01-18T00:12:10.901Z,486.00
2019-01-18T00:14:42.543Z,495.75
2019-01-18T00:17:13.813Z,502.00
2019-01-18T00:19:45.455Z,484.00
2019-01-18T00:22:16.954Z,481.75
2019-01-18T00:24:48.683Z,512.75
2019-01-18T00:27:19.891Z,506.50
2019-01-18T00:29:51.374Z,472.50
2019-01-18T00:32:22.553Z,473.75
2019-01-18T00:34:53.865Z,517.50
2019-01-18T00:37:25.265Z,506.50
2019-01-18T00:39:56.630Z,501.25
2019-01-18T00:42:28.045Z,456.00
2019-01-18T00:45:03.545Z,498.75
2019-01-18T00:47:35.211Z,510.50
2019-01-18T00:50:09.073Z,521.25
2019-01-18T00:52:40.361Z,481.75
2019-01-18T00:55:13.099Z,451.75
2019-01-18T00:57:44.964Z,494.50
2019-01-18T01:00:19.805Z,490.00
2019-01-18T01:02:51.387Z,461.75
2019-01-18T01:05:22.847Z,485.25
2019-01-18T01:07:54.047Z,469.25
2019-01-18T01:10:25.612Z,458.00
2019-01-18T01:12:57.334Z,454.25
2019-01-18T01:15:28.710Z,453.00
2019-01-18T01:17:59.921Z,454.00
2019-01-18T01:20:31.388Z,483.50
2019-01-18T01:23:02.833Z,437.25
2019-01-18T01:25:35.338Z,484.25
2019-01-18T01:28:06.890Z,468.00
2019-01-18T01:30:38.481Z,445.25
2019-01-18T01:33:09.621Z,467.50
2019-01-18T01:35:41.054Z,455.75
2019-01-18T01:38:12.432Z,452.50
2019-01-18T01:40:44.313Z,459.00
2019-01-18T01:43:15.770Z,469.00
2019-01-18T01:45:47.085Z,438.00
2019-01-18T01:48:18.614Z,435.25
2019-01-18T01:50:50.083Z,450.25
2019-01-18T01:53:21.348Z,455.75
2019-01-18T01:55:52.594Z,456.50
2019-01-18T01:58:23.907Z,487.75
2019-01-18T02:00:55.380Z,466.25
2019-01-18T02:03:26.810Z,466.50
2019-01-18T02:05:58.139Z,519.75
2019-01-18T02:08:29.404Z,577.00
2019-01-18T02:11:01.535Z,494.25
2019-01-18T02:13:32.807Z,530.00
2019-01-18T02:16:04.431Z,494.75
2019-01-18T02:18:36.094Z,512.75
2019-01-18T02:21:08.004Z,458.75
2019-01-18T02:23:39.351Z,454.25
2019-01-18T02:26:11.794Z,397.00
2019-01-18T02:28:43.647Z,424.50
2019-01-18T02:31:14.701Z,412.75
2019-01-18T02:33:47.054Z,402.75
2019-01-18T02:36:18.197Z,423.75
2019-01-18T02:38:49.523Z,403.75
2019-01-18T02:41:21.116Z,464.75
2019-01-18T02:43:52.696Z,470.00
2019-01-18T02:46:24.389Z,457.75
2019-01-18T02:48:55.765Z,436.25
2019-01-18T02:51:27.367Z,431.25
2019-01-18T02:53:59.042Z,416.00
2019-01-18T02:56:30.431Z,440.75
2019-01-18T02:59:01.790Z,382.25
2019-01-18T03:01:33.361Z,415.25
2019-01-18T03:04:05.138Z,410.75
2019-01-18T03:06:37.180Z,342.75
2019-01-18T03:09:10.686Z,402.00
2019-01-18T03:11:42.695Z,409.50
2019-01-18T03:14:14.097Z,422.50
2019-01-18T03:16:46.566Z,406.00
2019-01-18T03:19:18.323Z,426.50
2019-01-18T03:21:49.710Z,467.25
2019-01-18T03:24:21.186Z,433.00
2019-01-18T03:26:52.823Z,424.00
2019-01-18T03:29:24.184Z,404.00
2019-01-18T03:31:55.620Z,422.00
2019-01-18T03:34:27.022Z,422.50
2019-01-18T03:36:59.038Z,421.25
2019-01-18T03:39:30.374Z,434.75
2019-01-18T03:42:02.610Z,442.25
2019-01-18T03:44:33.521Z,440.25
2019-01-18T03:47:04.965Z,439.00
2019-01-18T03:49:36.012Z,444.50
2019-01-18T03:52:07.360Z,430.75
2019-01-18T03:54:38.262Z,377.50
2019-01-18T03:57:09.478Z,408.75
2019-01-18T03:59:40.895Z,451.50
2019-01-18T04:02:13.396Z,410.75
2019-01-18T04:04:44.842Z,385.50
2019-01-18T04:07:16.343Z,435.50
2019-01-18T04:09:47.710Z,426.25
2019-01-18T04:12:19.418Z,422.00
2019-01-18T04:14:51.164Z,410.50
2019-01-18T04:17:22.782Z,412.00
2019-01-18T04:19:54.089Z,450.50
2019-01-18T04:22:25.825Z,401.25
2019-01-18T04:24:57.015Z,427.50
2019-01-18T04:27:29.463Z,410.50
2019-01-18T04:30:01.136Z,382.75
2019-01-18T04:32:32.602Z,395.75
2019-01-18T04:35:03.927Z,390.25
2019-01-18T04:37:35.550Z,390.25
2019-01-18T04:40:09.411Z,397.50
2019-01-18T04:42:41.508Z,409.50
2019-01-18T04:45:13.590Z,389.00
2019-01-18T04:47:44.641Z,375.50
2019-01-18T04:50:21.410Z,347.75
2019-01-18T04:52:52.723Z,408.50
2019-01-18T04:55:24.677Z,396.00
2019-01-18T04:57:56.004Z,352.00
2019-01-18T05:00:29.332Z,398.25
2019-01-18T05:03:01.006Z,382.75
2019-01-18T05:05:32.795Z,358.00
2019-01-18T05:08:04.561Z,408.75
2019-01-18T05:10:36.260Z,376.00
2019-01-18T05:13:08.258Z,404.50
2019-01-18T05:15:40.100Z,381.25
2019-01-18T05:18:11.531Z,385.00
2019-01-18T05:20:42.779Z,382.00
2019-01-18T05:23:14.076Z,400.75
2019-01-18T05:25:45.599Z,396.75
2019-01-18T05:28:17.681Z,372.00
2019-01-18T05:30:49.305Z,347.00
2019-01-18T05:33:20.831Z,368.50
2019-01-18T05:35:52.712Z,347.75
2019-01-18T05:38:24.327Z,354.00
2019-01-18T05:40:55.860Z,346.50
2019-01-18T05:43:27.459Z,348.50
2019-01-18T05:45:58.947Z,289.50
2019-01-18T05:48:30.309Z,331.00
2019-01-18T05:51:03.218Z,300.25
2019-01-18T05:53:34.602Z,343.50
2019-01-18T05:56:06.076Z,306.25
2019-01-18T05:58:37.260Z,359.50
2019-01-18T06:01:10.656Z,370.50
2019-01-18T06:03:42.131Z,321.00
2019-01-18T06:06:13.953Z,334.75
2019-01-18T06:08:45.176Z,351.25
2019-01-18T06:11:16.589Z,365.50
2019-01-18T06:13:48.223Z,358.00
2019-01-18T06:16:20.050Z,305.25
2019-01-18T06:18:51.881Z,302.75
2019-01-18T06:21:22.946Z,346.50
2019-01-18T06:23:54.800Z,332.00
2019-01-18T06:26:26.317Z,316.75
2019-01-18T06:28:57.536Z,291.75
2019-01-18T06:31:28.857Z,318.50
2019-01-18T06:34:00.549Z,292.50
2019-01-18T06:36:34.388Z,251.75
2019-01-18T06:39:08.265Z,258.80
2019-01-18T06:41:49.240Z,252.60
2019-01-18T06:44:20.473Z,220.25
2019-01-18T06:46:51.583Z,254.50
2019-01-18T06:49:22.781Z,235.25
2019-01-18T06:51:54.225Z,243.25
2019-01-18T06:54:25.796Z,264.00
2019-01-18T06:56:57.167Z,265.50
2019-01-18T06:59:29.247Z,269.25
2019-01-18T07:02:00.787Z,280.25
2019-01-18T07:04:32.119Z,291.25
2019-01-18T07:07:03.390Z,248.75
2019-01-18T07:09:35.117Z,214.20
2019-01-18T07:12:07.567Z,209.80
2019-01-18T07:14:39.274Z,191.60
2019-01-18T07:17:10.834Z,207.60
2019-01-18T07:19:42.277Z,188.40
2019-01-18T07:22:13.613Z,189.40
2019-01-18T07:24:45.293Z,191.20
2019-01-18T07:27:17.108Z,185.60
2019-01-18T07:29:48.826Z,196.20
2019-01-18T07:32:20.302Z,195.20
2019-01-18T07:34:51.575Z,165.00
2019-01-18T07:37:23.326Z,166.20
2019-01-18T07:39:55.307Z,163.40
2019-01-18T07:42:27.014Z,180.20
2019-01-18T07:44:58.695Z,186.20
2019-01-18T07:47:30.410Z,183.00
2019-01-18T07:50:01.988Z,175.20
2019-01-18T07:52:33.673Z,182.00
2019-01-18T07:55:07.670Z,195.80
2019-01-18T07:57:39.069Z,153.60
2019-01-18T08:00:19.771Z,187.20
2019-01-18T08:02:51.464Z,159.00
2019-01-18T08:05:24.297Z,148.60
2019-01-18T08:07:55.940Z,155.40
2019-01-18T08:10:27.769Z,153.80
2019-01-18T08:12:59.231Z,128.80
2019-01-18T08:15:31.903Z,134.40
2019-01-18T08:18:03.590Z,122.40
2019-01-18T08:20:35.247Z,105.40
2019-01-18T08:23:06.731Z,102.60
2019-01-18T08:25:38.126Z,109.20
2019-01-18T08:28:09.823Z,118.80
2019-01-18T08:30:41.459Z,109.00
2019-01-18T08:33:13.001Z,107.40
2019-01-18T08:35:44.613Z,109.60
2019-01-18T08:38:15.888Z,98.20
2019-01-18T08:40:47.481Z,101.40
2019-01-18T08:43:20.264Z,117.60
2019-01-18T08:45:57.066Z,112.80
2019-01-18T08:48:28.857Z,108.40
2019-01-18T08:51:00.053Z,121.00
2019-01-18T08:53:31.279Z,105.40
2019-01-18T08:56:03.339Z,112.00
2019-01-18T08:58:34.727Z,108.20
2019-01-18T09:01:06.583Z,119.60
2019-01-18T09:03:38.063Z,120.80
2019-01-18T09:06:09.807Z,123.00
2019-01-18T09:08:40.905Z,123.00
2019-01-18T09:11:12.479Z,131.00
2019-01-18T09:13:43.573Z,125.00
2019-01-18T09:16:15.226Z,130.60
2019-01-18T09:18:46.411Z,135.80
2019-01-18T09:21:18.329Z,129.60
2019-01-18T09:23:49.935Z,134.60
2019-01-18T09:26:21.896Z,126.60
2019-01-18T09:28:53.505Z,133.60
2019-01-18T09:31:25.343Z,156.80
2019-01-18T09:33:57.252Z,146.60
2019-01-18T09:36:28.694Z,145.60
2019-01-18T09:39:00.357Z,163.20
2019-01-18T09:41:31.901Z,144.60
2019-01-18T09:44:03.411Z,152.80
2019-01-18T09:46:34.798Z,161.00
2019-01-18T09:49:06.618Z,167.60
2019-01-18T09:51:38.266Z,160.40
2019-01-18T09:54:10.512Z,167.20
2019-01-18T09:56:42.626Z,152.40
2019-01-18T09:59:14.709Z,174.00
2019-01-18T10:01:49.481Z,167.00
2019-01-18T10:04:20.095Z,164.60
2019-01-18T10:06:52.443Z,144.80
2019-01-18T10:09:24.226Z,133.20
2019-01-18T10:11:56.119Z,128.20
2019-01-18T10:14:27.921Z,124.60
2019-01-18T10:17:02.520Z,151.40
2019-01-18T10:19:35.377Z,131.00
2019-01-18T10:22:07.140Z,138.20
2019-01-18T10:24:38.555Z,142.80
2019-01-18T10:27:10.013Z,147.80
2019-01-18T10:29:41.235Z,151.00
2019-01-18T10:32:12.589Z,154.00
2019-01-18T10:34:44.151Z,175.00
2019-01-18T10:37:15.568Z,151.20
2019-01-18T10:39:47.174Z,155.80
2019-01-18T10:42:18.770Z,158.40
2019-01-18T10:44:50.587Z,156.80
2019-01-18T10:47:22.077Z,139.80
2019-01-18T10:49:53.517Z,168.00
2019-01-18T10:52:25.194Z,158.00
2019-01-18T10:54:56.595Z,177.20
2019-01-18T10:57:28.086Z,182.40
2019-01-18T10:59:59.744Z,187.60
2019-01-18T11:02:31.464Z,178.20
2019-01-18T11:05:03.458Z,187.60
2019-01-18T11:07:35.121Z,192.40
2019-01-18T11:10:06.892Z,164.40
2019-01-18T11:12:38.218Z,189.80
2019-01-18T11:15:11.775Z,187.00
2019-01-18T11:17:43.507Z,168.80
2019-01-18T11:20:22.945Z,173.40
2019-01-18T11:22:58.150Z,167.60
2019-01-18T11:25:31.898Z,159.00
2019-01-18T11:28:02.224Z,149.00
2019-01-18T11:30:33.725Z,169.00
2019-01-18T11:33:05.308Z,175.20
2019-01-18T11:35:38.449Z,167.00
2019-01-18T11:38:10.011Z,156.20
2019-01-18T11:40:41.472Z,156.80
2019-01-18T11:43:13.110Z,161.60
2019-01-18T11:45:44.530Z,161.20
2019-01-18T11:48:16.235Z,155.80
2019-01-18T11:50:48.787Z,143.40
2019-01-18T11:53:20.052Z,154.00
2019-01-18T11:55:51.704Z,142.80
2019-01-18T11:58:23.280Z,150.40
2019-01-18T12:00:55.049Z,143.60
2019-01-18T12:03:26.420Z,133.40
2019-01-18T12:05:58.811Z,152.60
2019-01-18T12:08:30.232Z,134.80
2019-01-18T12:11:01.572Z,134.20
2019-01-18T12:13:33.352Z,145.80
2019-01-18T12:16:04.892Z,163.60
2019-01-18T12:18:36.385Z,152.20
2019-01-18T12:21:07.538Z,152.00
2019-01-18T12:23:39.072Z,147.80
2019-01-18T12:26:10.360Z,149.00
2019-01-18T12:28:41.734Z,154.80
2019-01-18T12:31:13.265Z,157.40
2019-01-18T12:33:44.394Z,179.20
2019-01-18T12:36:15.633Z,184.60
2019-01-18T12:38:46.961Z,161.20
2019-01-18T12:41:18.116Z,177.20
2019-01-18T12:43:49.403Z,169.60
2019-01-18T12:46:21.380Z,193.80
2019-01-18T12:48:53.453Z,187.80
2019-01-18T12:51:24.737Z,174.00
2019-01-18T12:53:56.315Z,193.60
2019-01-18T12:56:27.618Z,197.80
2019-01-18T12:58:58.829Z,199.80
2019-01-18T13:01:30.115Z,173.20
2019-01-18T13:04:01.584Z,190.40
2019-01-18T13:06:33.095Z,232.75
2019-01-18T13:09:05.967Z,233.25
2019-01-18T13:11:37.982Z,239.75
2019-01-18T13:14:09.212Z,248.25
2019-01-18T13:16:43.729Z,230.50
2019-01-18T13:19:23.182Z,216.50
2019-01-18T13:21:54.919Z,219.50
2019-01-18T13:24:27.062Z,221.75
2019-01-18T13:26:59.798Z,229.50
2019-01-18T13:29:31.192Z,237.50
2019-01-18T13:32:02.641Z,239.00
2019-01-18T13:34:34.189Z,238.50
2019-01-18T13:37:05.768Z,255.00
2019-01-18T13:39:37.126Z,251.75
2019-01-18T13:42:08.798Z,207.00
2019-01-18T13:44:43.708Z,225.50
2019-01-18T13:47:18.249Z,233.75
2019-01-18T13:49:46.604Z,241.75
2019-01-18T13:52:21.552Z,246.25
2019-01-18T13:54:53.212Z,220.00
2019-01-18T13:57:24.890Z,232.00
2019-01-18T13:59:56.594Z,259.25
2019-01-18T14:02:29.693Z,251.00
2019-01-18T14:05:00.947Z,276.50
2019-01-18T14:07:32.862Z,266.00
2019-01-18T14:10:04.758Z,309.75
2019-01-18T14:12:37.133Z,314.50
2019-01-18T14:15:09.076Z,314.25
2019-01-18T14:17:40.533Z,298.00
2019-01-18T14:20:13.894Z,316.25
2019-01-18T14:22:45.384Z,306.50
2019-01-18T14:25:16.800Z,384.00
2019-01-18T14:27:48.494Z,388.75
2019-01-18T14:30:22.513Z,400.75
2019-01-18T14:32:55.582Z,438.25
2019-01-18T14:35:27.244Z,394.00
2019-01-18T14:37:58.503Z,412.00
2019-01-18T14:40:30.037Z,436.25
2019-01-18T14:43:01.714Z,415.00
2019-01-18T14:45:36.733Z,440.00
2019-01-18T14:48:08.675Z,407.75
2019-01-18T14:50:40.327Z,407.25
2019-01-18T14:53:12.031Z,443.75
2019-01-18T14:55:43.376Z,439.80
2019-01-18T14:58:15.328Z,476.00
2019-01-18T15:00:46.718Z,445.25
2019-01-18T15:03:18.865Z,454.75
2019-01-18T15:05:50.401Z,424.25
2019-01-18T15:08:24.300Z,459.40
2019-01-18T15:10:55.920Z,477.00
2019-01-18T15:13:27.465Z,474.60
2019-01-18T15:15:59.435Z,511.20
2019-01-18T15:18:31.038Z,537.50
2019-01-18T15:21:02.466Z,546.40
2019-01-18T15:23:33.773Z,600.50
2019-01-18T15:26:05.642Z,677.60
2019-01-18T15:28:44.594Z,673.80
2019-01-18T15:31:15.888Z,639.20
2019-01-18T15:33:47.824Z,679.60
2019-01-18T15:36:19.208Z,715.80
2019-01-18T15:38:51.477Z,633.00
2019-01-18T15:41:22.859Z,665.00
2019-01-18T15:43:55.601Z,676.83
2019-01-18T15:46:27.219Z,669.80
2019-01-18T15:48:58.628Z,689.20
2019-01-18T15:51:29.706Z,674.80
2019-01-18T15:54:01.610Z,668.50
2019-01-18T15:56:33.126Z,710.40
2019-01-18T15:59:04.795Z,766.60
2019-01-18T16:01:36.361Z,752.00
2019-01-18T16:04:09.073Z,709.20
2019-01-18T16:06:40.630Z,730.60
2019-01-18T16:09:12.783Z,728.00
2019-01-18T16:11:44.250Z,690.40
2019-01-18T16:14:15.734Z,767.20
2019-01-18T16:16:56.802Z,800.20
2019-01-18T16:19:28.596Z,843.00
2019-01-18T16:22:00.253Z,768.80
2019-01-18T16:24:31.765Z,799.60
2019-01-18T16:27:03.469Z,828.20
2019-01-18T16:29:34.763Z,779.80
2019-01-18T16:32:06.503Z,725.80
2019-01-18T16:34:37.993Z,744.60
2019-01-18T16:37:09.362Z,765.80
2019-01-18T16:39:41.443Z,778.60
2019-01-18T16:42:15.443Z,751.20
2019-01-18T16:44:47.184Z,787.20
2019-01-18T16:47:18.470Z,737.00
2019-01-18T16:49:49.871Z,730.40
2019-01-18T16:52:21.116Z,758.00
2019-01-18T16:54:52.607Z,728.00
2019-01-18T16:57:23.965Z,783.20
2019-01-18T16:59:55.444Z,780.80
2019-01-18T17:02:26.668Z,756.40
2019-01-18T17:04:58.191Z,719.00
2019-01-18T17:07:29.737Z,735.20
2019-01-18T17:10:01.740Z,808.60
2019-01-18T17:12:32.851Z,789.40
2019-01-18T17:15:04.767Z,749.80
2019-01-18T17:17:36.359Z,744.20
2019-01-18T17:20:12.544Z,824.80
2019-01-18T17:22:43.987Z,739.20
2019-01-18T17:25:17.476Z,765.40
2019-01-18T17:27:49.232Z,783.80
2019-01-18T17:30:21.186Z,826.20
2019-01-18T17:32:52.853Z,842.00
2019-01-18T17:35:33.471Z,818.60
2019-01-18T17:38:29.101Z,805.60
2019-01-18T17:41:45.988Z,815.60
2019-01-18T17:45:06.821Z,791.80
2019-01-18T17:48:25.075Z,804.60
2019-01-18T17:51:24.749Z,868.20
2019-01-18T17:54:22.963Z,856.60
2019-01-18T17:57:40.800Z,840.60
2019-01-18T18:00:48.612Z,860.60
2019-01-18T18:03:55.232Z,837.40
2019-01-18T18:07:07.392Z,840.00
2019-01-18T18:10:11.188Z,893.00
2019-01-18T18:13:30.090Z,856.80
2019-01-18T18:16:32.504Z,864.40
2019-01-18T18:19:30.949Z,832.00
2019-01-18T18:22:36.685Z,896.00
2019-01-18T18:25:35.836Z,858.00
2019-01-18T18:28:37.327Z,833.00
2019-01-18T18:31:23.446Z,838.60
2019-01-18T18:34:14.786Z,874.60
2019-01-18T18:37:15.978Z,861.00
2019-01-18T18:40:52.258Z,871.00
2019-01-18T18:43:50.350Z,799.40
2019-01-18T18:46:43.873Z,801.40
2019-01-18T18:49:28.573Z,883.40
2019-01-18T18:52:39.705Z,828.00
2019-01-18T18:55:30.403Z,873.20
2019-01-18T18:58:38.128Z,867.00
2019-01-18T19:01:52.569Z,864.40
2019-01-18T19:04:56.356Z,827.60
2019-01-18T19:07:46.232Z,861.20
2019-01-18T19:10:39.372Z,833.40
2019-01-18T19:13:44.985Z,848.00
2019-01-18T19:16:47.651Z,859.20
2019-01-18T19:19:46.559Z,847.60
2019-01-18T19:22:53.746Z,843.80
2019-01-18T19:25:49.597Z,863.60
2019-01-18T19:28:52.498Z,875.20
2019-01-18T19:31:55.341Z,803.40
2019-01-18T19:35:05.088Z,852.60
2019-01-18T19:38:27.730Z,759.33
2019-01-18T19:41:41.880Z,764.00
2019-01-18T19:44:41.728Z,782.60
2019-01-18T19:47:39.289Z,805.20
2019-01-18T19:50:52.655Z,779.80
2019-01-18T19:53:49.147Z,760.40
2019-01-18T19:56:58.686Z,730.40
2019-01-18T19:59:57.078Z,783.20
2019-01-18T20:03:00.557Z,766.20
2019-01-18T20:06:12.493Z,749.60
2019-01-18T20:09:13.597Z,749.40
2019-01-18T20:12:22.728Z,740.80
2019-01-18T20:15:17.313Z,734.40
2019-01-18T20:18:29.333Z,656.00
2019-01-18T20:21:36.103Z,668.50
2019-01-18T20:24:45.664Z,643.40
2019-01-18T20:27:57.123Z,706.50
2019-01-18T20:31:13.194Z,654.20
2019-01-18T20:34:20.175Z,614.60
2019-01-18T20:37:24.452Z,629.20
2019-01-18T20:40:42.155Z,627.80
2019-01-18T20:43:48.321Z,571.60
2019-01-18T20:46:55.124Z,541.75
2019-01-18T20:49:50.442Z,540.25
2019-01-18T20:52:59.504Z,526.50
2019-01-18T20:55:54.790Z,489.00
2019-01-18T20:58:56.704Z,466.25
2019-01-18T21:02:01.548Z,417.50
2019-01-18T21:05:25.220Z,459.50
2019-01-18T21:08:46.331Z,459.00
2019-01-18T21:11:42.053Z,435.75
2019-01-18T21:14:43.302Z,426.75
2019-01-18T21:17:59.837Z,450.25
2019-01-18T21:21:30.247Z,463.50
2019-01-18T21:24:44.899Z,394.75
2019-01-18T21:28:02.742Z,406.00
2019-01-18T21:31:15.996Z,432.00
2019-01-18T21:34:24.995Z,448.25
2019-01-18T21:37:44.483Z,446.50
2019-01-18T21:40:43.703Z,423.75
2019-01-18T21:44:08.067Z,434.25
2019-01-18T21:47:11.972Z,462.75
2019-01-18T21:50:00.650Z,443.50
2019-01-18T21:53:15.887Z,423.00
2019-01-18T21:56:27.129Z,431.50
2019-01-18T21:59:25.160Z,450.75
2019-01-18T22:02:22.399Z,433.75
2019-01-18T22:05:11.818Z,400.75
2019-01-18T22:07:51.144Z,396.00
2019-01-18T22:10:40.948Z,397.75
2019-01-18T22:13:42.884Z,439.25
2019-01-18T22:16:50.246Z,416.00
2019-01-18T22:20:11.280Z,395.25
2019-01-18T22:23:16.738Z,425.50
2019-01-18T22:26:18.781Z,393.00
2019-01-18T22:29:23.228Z,409.25
2019-01-18T22:32:35.117Z,355.50
2019-01-18T22:35:41.607Z,421.50
2019-01-18T22:38:52.242Z,383.50
2019-01-18T22:42:04.970Z,402.00
2019-01-18T22:45:09.668Z,380.25
2019-01-18T22:48:45.517Z,378.50
2019-01-18T22:51:58.353Z,370.75
2019-01-18T22:55:06.690Z,335.25
2019-01-18T22:58:17.144Z,367.50
2019-01-18T23:01:20.003Z,360.00
2019-01-18T23:04:29.888Z,385.75
2019-01-18T23:07:24.382Z,360.00
2019-01-18T23:10:57.766Z,371.25
2019-01-18T23:14:15.618Z,384.75
2019-01-18T23:17:32.032Z,351.00
2019-01-18T23:20:41.642Z,359.00
2019-01-18T23:23:54.469Z,354.00
2019-01-18T23:27:23.743Z,377.00
2019-01-18T23:30:40.931Z,352.50
2019-01-18T23:33:36.078Z,350.00
2019-01-18T23:36:34.702Z,373.25
2019-01-18T23:39:25.538Z,361.50
2019-01-18T23:42:42.596Z,330.25
2019-01-18T23:45:42.097Z,353.50
2019-01-18T23:48:48.930Z,351.75
2019-01-18T23:51:53.441Z,319.00
2019-01-18T23:55:14.952Z,337.00
2019-01-18T23:58:07.817Z,330.50
